sensor_id;sensor_type;location;lat;lon;timestamp;temperature;humidity
8313;DHT22;4194;43.408;24.626;2023-04-23T00:01:03;9.50;99.90
8313;DHT22;4194;43.408;24.626;2023-04-23T00:03:30;8.60;99.90
8313;DHT22;4194;43.408;24.626;2023-04-23T00:06:04;8.60;99.90
8313;DHT22;4194;43.408;24.626;2023-04-23T00:08:31;8.70;99.90
8313;DHT22;4194;43.408;24.626;2023-04-23T00:10:57;8.80;99.90
8313;DHT22;4194;43.408;24.626;2023-04-23T00:13:23;8.90;99.90
8313;DHT22;4194;43.408;24.626;2023-04-23T00:15:49;8.50;99.90
8313;DHT22;4194;43.408;24.626;2023-04-23T00:18:15;8.70;99.90
8313;DHT22;4194;43.408;24.626;2023-04-23T00:20:45;8.50;99.90
8313;DHT22;4194;43.408;24.626;2023-04-23T00:23:10;8.60;99.90
8313;DHT22;4194;43.408;24.626;2023-04-23T00:25:36;8.20;99.90
8313;DHT22;4194;43.408;24.626;2023-04-23T00:28:02;8.30;99.90
8313;DHT22;4194;43.408;24.626;2023-04-23T00:30:28;7.60;99.90
8313;DHT22;4194;43.408;24.626;2023-04-23T00:32:53;8.20;99.90
8313;DHT22;4194;43.408;24.626;2023-04-23T00:35:19;8.10;99.90
8313;DHT22;4194;43.408;24.626;2023-04-23T00:37:45;8.10;99.90
8313;DHT22;4194;43.408;24.626;2023-04-23T00:40:11;8.10;99.90
8313;DHT22;4194;43.408;24.626;2023-04-23T00:42:38;8.10;99.90
8313;DHT22;4194;43.408;24.626;2023-04-23T00:45:07;8.40;99.90
8313;DHT22;4194;43.408;24.626;2023-04-23T00:47:34;8.00;99.90
8313;DHT22;4194;43.408;24.626;2023-04-23T00:50:00;8.10;99.90
8313;DHT22;4194;43.408;24.626;2023-04-23T00:52:26;8.30;99.90
8313;DHT22;4194;43.408;24.626;2023-04-23T00:54:53;8.20;99.90
8313;DHT22;4194;43.408;24.626;2023-04-23T00:57:20;8.00;99.90
8313;DHT22;4194;43.408;24.626;2023-04-23T00:59:46;8.00;99.90
8313;DHT22;4194;43.408;24.626;2023-04-23T01:02:12;8.60;99.90
8313;DHT22;4194;43.408;24.626;2023-04-23T01:04:40;7.90;99.90
8313;DHT22;4194;43.408;24.626;2023-04-23T01:07:08;8.60;99.90
8313;DHT22;4194;43.408;24.626;2023-04-23T01:09:34;8.00;99.90
8313;DHT22;4194;43.408;24.626;2023-04-23T01:12:00;7.80;99.90
8313;DHT22;4194;43.408;24.626;2023-04-23T01:14:27;7.80;99.90
8313;DHT22;4194;43.408;24.626;2023-04-23T01:16:53;7.80;99.90
8313;DHT22;4194;43.408;24.626;2023-04-23T01:19:18;7.80;99.90
8313;DHT22;4194;43.408;24.626;2023-04-23T01:21:45;8.40;99.90
8313;DHT22;4194;43.408;24.626;2023-04-23T01:24:11;7.60;99.90
8313;DHT22;4194;43.408;24.626;2023-04-23T01:26:38;8.40;99.90
8313;DHT22;4194;43.408;24.626;2023-04-23T01:29:04;6.70;99.90
8313;DHT22;4194;43.408;24.626;2023-04-23T01:31:30;8.40;99.90
8313;DHT22;4194;43.408;24.626;2023-04-23T01:33:56;8.40;99.90
8313;DHT22;4194;43.408;24.626;2023-04-23T01:36:23;7.60;99.90
8313;DHT22;4194;43.408;24.626;2023-04-23T01:38:50;7.40;99.90
8313;DHT22;4194;43.408;24.626;2023-04-23T01:41:16;7.50;99.90
8313;DHT22;4194;43.408;24.626;2023-04-23T01:43:42;6.70;99.90
8313;DHT22;4194;43.408;24.626;2023-04-23T01:46:10;7.30;99.90
8313;DHT22;4194;43.408;24.626;2023-04-23T01:48:36;8.30;99.90
8313;DHT22;4194;43.408;24.626;2023-04-23T01:51:02;7.30;99.90
8313;DHT22;4194;43.408;24.626;2023-04-23T01:53:28;7.20;99.90
8313;DHT22;4194;43.408;24.626;2023-04-23T01:55:54;8.40;99.90
8313;DHT22;4194;43.408;24.626;2023-04-23T01:58:20;7.20;99.90
8313;DHT22;4194;43.408;24.626;2023-04-23T02:00:48;7.10;99.90
8313;DHT22;4194;43.408;24.626;2023-04-23T02:05:40;7.10;99.90
8313;DHT22;4194;43.408;24.626;2023-04-23T02:08:07;7.40;99.90
8313;DHT22;4194;43.408;24.626;2023-04-23T02:10:32;8.40;99.90
8313;DHT22;4194;43.408;24.626;2023-04-23T02:12:58;8.10;99.90
8313;DHT22;4194;43.408;24.626;2023-04-23T02:15:24;6.90;99.90
8313;DHT22;4194;43.408;24.626;2023-04-23T02:17:50;6.40;99.90
8313;DHT22;4194;43.408;24.626;2023-04-23T02:20:17;8.70;99.90
8313;DHT22;4194;43.408;24.626;2023-04-23T02:22:44;6.90;99.90
8313;DHT22;4194;43.408;24.626;2023-04-23T02:25:10;7.90;99.90
8313;DHT22;4194;43.408;24.626;2023-04-23T02:27:36;7.30;99.90
8313;DHT22;4194;43.408;24.626;2023-04-23T02:30:02;7.00;99.90
8313;DHT22;4194;43.408;24.626;2023-04-23T02:32:28;6.70;99.90
8313;DHT22;4194;43.408;24.626;2023-04-23T02:34:54;7.90;99.90
8313;DHT22;4194;43.408;24.626;2023-04-23T02:37:20;7.20;99.90
8313;DHT22;4194;43.408;24.626;2023-04-23T02:39:46;7.30;99.90
8313;DHT22;4194;43.408;24.626;2023-04-23T02:42:12;6.90;99.90
8313;DHT22;4194;43.408;24.626;2023-04-23T02:44:38;7.20;99.90
8313;DHT22;4194;43.408;24.626;2023-04-23T02:47:03;8.50;99.90
8313;DHT22;4194;43.408;24.626;2023-04-23T02:49:29;7.70;99.90
8313;DHT22;4194;43.408;24.626;2023-04-23T02:51:55;7.10;99.90
8313;DHT22;4194;43.408;24.626;2023-04-23T02:54:20;6.90;99.90
8313;DHT22;4194;43.408;24.626;2023-04-23T02:56:46;7.70;99.90
8313;DHT22;4194;43.408;24.626;2023-04-23T02:59:12;7.40;99.90
8313;DHT22;4194;43.408;24.626;2023-04-23T03:01:37;6.90;99.90
8313;DHT22;4194;43.408;24.626;2023-04-23T03:04:03;7.10;99.90
8313;DHT22;4194;43.408;24.626;2023-04-23T03:06:29;6.80;99.90
8313;DHT22;4194;43.408;24.626;2023-04-23T03:08:56;6.60;99.90
8313;DHT22;4194;43.408;24.626;2023-04-23T03:11:22;7.70;99.90
8313;DHT22;4194;43.408;24.626;2023-04-23T03:13:48;6.80;99.90
8313;DHT22;4194;43.408;24.626;2023-04-23T03:16:13;6.10;99.90
8313;DHT22;4194;43.408;24.626;2023-04-23T03:18:39;6.70;99.90
8313;DHT22;4194;43.408;24.626;2023-04-23T03:21:05;8.00;99.90
8313;DHT22;4194;43.408;24.626;2023-04-23T03:23:31;5.60;99.90
8313;DHT22;4194;43.408;24.626;2023-04-23T03:25:56;8.30;99.90
8313;DHT22;4194;43.408;24.626;2023-04-23T03:28:22;5.80;99.90
8313;DHT22;4194;43.408;24.626;2023-04-23T03:30:48;6.60;99.90
8313;DHT22;4194;43.408;24.626;2023-04-23T03:33:14;6.50;99.90
8313;DHT22;4194;43.408;24.626;2023-04-23T03:35:40;8.00;99.90
8313;DHT22;4194;43.408;24.626;2023-04-23T03:38:06;6.60;99.90
8313;DHT22;4194;43.408;24.626;2023-04-23T03:40:32;7.10;99.90
8313;DHT22;4194;43.408;24.626;2023-04-23T03:42:57;7.00;99.90
8313;DHT22;4194;43.408;24.626;2023-04-23T03:45:24;6.10;99.90
8313;DHT22;4194;43.408;24.626;2023-04-23T03:47:50;6.90;99.90
8313;DHT22;4194;43.408;24.626;2023-04-23T03:50:15;6.30;99.90
8313;DHT22;4194;43.408;24.626;2023-04-23T03:52:42;8.00;99.90
8313;DHT22;4194;43.408;24.626;2023-04-23T03:55:08;8.30;99.90
8313;DHT22;4194;43.408;24.626;2023-04-23T03:57:37;8.40;99.90
8313;DHT22;4194;43.408;24.626;2023-04-23T04:00:06;7.00;99.90
8313;DHT22;4194;43.408;24.626;2023-04-23T04:02:36;6.80;99.90
8313;DHT22;4194;43.408;24.626;2023-04-23T04:05:04;7.60;99.90
8313;DHT22;4194;43.408;24.626;2023-04-23T04:07:29;6.70;99.90
8313;DHT22;4194;43.408;24.626;2023-04-23T04:09:56;6.70;99.90
8313;DHT22;4194;43.408;24.626;2023-04-23T04:12:21;6.80;99.90
8313;DHT22;4194;43.408;24.626;2023-04-23T04:14:47;6.40;99.90
8313;DHT22;4194;43.408;24.626;2023-04-23T04:17:13;7.30;99.90
8313;DHT22;4194;43.408;24.626;2023-04-23T04:19:41;7.90;99.90
8313;DHT22;4194;43.408;24.626;2023-04-23T04:22:08;6.70;99.90
8313;DHT22;4194;43.408;24.626;2023-04-23T04:24:33;8.60;99.90
8313;DHT22;4194;43.408;24.626;2023-04-23T04:27:00;6.80;99.90
8313;DHT22;4194;43.408;24.626;2023-04-23T04:29:27;7.10;99.90
8313;DHT22;4194;43.408;24.626;2023-04-23T04:31:53;7.10;99.90
8313;DHT22;4194;43.408;24.626;2023-04-23T04:34:19;6.70;99.90
8313;DHT22;4194;43.408;24.626;2023-04-23T04:36:45;8.30;99.90
8313;DHT22;4194;43.408;24.626;2023-04-23T04:39:12;7.30;99.90
8313;DHT22;4194;43.408;24.626;2023-04-23T04:41:39;6.90;99.90
8313;DHT22;4194;43.408;24.626;2023-04-23T04:44:06;7.90;99.90
8313;DHT22;4194;43.408;24.626;2023-04-23T04:46:33;8.60;99.90
8313;DHT22;4194;43.408;24.626;2023-04-23T04:49:07;7.30;99.90
8313;DHT22;4194;43.408;24.626;2023-04-23T04:51:34;7.50;99.90
8313;DHT22;4194;43.408;24.626;2023-04-23T04:53:59;8.10;99.90
8313;DHT22;4194;43.408;24.626;2023-04-23T04:56:25;7.80;99.90
8313;DHT22;4194;43.408;24.626;2023-04-23T04:58:51;7.40;99.90
8313;DHT22;4194;43.408;24.626;2023-04-23T05:01:17;7.60;99.90
8313;DHT22;4194;43.408;24.626;2023-04-23T05:03:44;8.30;99.90
8313;DHT22;4194;43.408;24.626;2023-04-23T05:06:10;8.30;99.90
8313;DHT22;4194;43.408;24.626;2023-04-23T05:08:36;7.80;99.90
8313;DHT22;4194;43.408;24.626;2023-04-23T05:11:02;8.30;99.90
8313;DHT22;4194;43.408;24.626;2023-04-23T05:13:28;8.80;99.90
8313;DHT22;4194;43.408;24.626;2023-04-23T05:18:20;9.70;99.90
8313;DHT22;4194;43.408;24.626;2023-04-23T05:20:46;9.00;99.90
8313;DHT22;4194;43.408;24.626;2023-04-23T05:23:11;9.90;99.90
8313;DHT22;4194;43.408;24.626;2023-04-23T05:25:37;9.00;99.90
8313;DHT22;4194;43.408;24.626;2023-04-23T05:28:03;9.50;99.90
8313;DHT22;4194;43.408;24.626;2023-04-23T05:30:29;9.30;99.90
8313;DHT22;4194;43.408;24.626;2023-04-23T05:32:55;8.40;99.90
8313;DHT22;4194;43.408;24.626;2023-04-23T05:35:20;9.40;99.90
8313;DHT22;4194;43.408;24.626;2023-04-23T05:37:46;9.50;99.90
8313;DHT22;4194;43.408;24.626;2023-04-23T05:40:12;9.60;99.90
8313;DHT22;4194;43.408;24.626;2023-04-23T05:42:37;9.40;99.90
8313;DHT22;4194;43.408;24.626;2023-04-23T05:45:04;9.70;99.90
8313;DHT22;4194;43.408;24.626;2023-04-23T05:47:29;9.80;99.90
8313;DHT22;4194;43.408;24.626;2023-04-23T05:49:55;11.20;99.90
8313;DHT22;4194;43.408;24.626;2023-04-23T05:52:24;10.90;99.90
8313;DHT22;4194;43.408;24.626;2023-04-23T05:54:50;10.80;99.90
8313;DHT22;4194;43.408;24.626;2023-04-23T05:57:16;9.60;99.90
8313;DHT22;4194;43.408;24.626;2023-04-23T05:59:42;10.60;99.90
8313;DHT22;4194;43.408;24.626;2023-04-23T06:02:09;11.10;99.90
8313;DHT22;4194;43.408;24.626;2023-04-23T06:04:36;11.00;99.90
8313;DHT22;4194;43.408;24.626;2023-04-23T06:07:02;11.10;99.90
8313;DHT22;4194;43.408;24.626;2023-04-23T06:09:28;11.20;99.90
8313;DHT22;4194;43.408;24.626;2023-04-23T06:11:53;12.30;99.90
8313;DHT22;4194;43.408;24.626;2023-04-23T06:14:19;11.50;99.90
8313;DHT22;4194;43.408;24.626;2023-04-23T06:16:45;11.70;99.90
8313;DHT22;4194;43.408;24.626;2023-04-23T06:19:11;12.40;99.90
8313;DHT22;4194;43.408;24.626;2023-04-23T06:21:36;12.20;99.90
8313;DHT22;4194;43.408;24.626;2023-04-23T06:24:02;12.30;99.90
8313;DHT22;4194;43.408;24.626;2023-04-23T06:26:28;12.30;99.90
8313;DHT22;4194;43.408;24.626;2023-04-23T06:28:54;13.20;99.90
8313;DHT22;4194;43.408;24.626;2023-04-23T06:31:20;12.40;99.90
8313;DHT22;4194;43.408;24.626;2023-04-23T06:33:45;14.00;99.90
8313;DHT22;4194;43.408;24.626;2023-04-23T06:36:11;13.50;99.90
8313;DHT22;4194;43.408;24.626;2023-04-23T06:38:39;11.80;99.90
8313;DHT22;4194;43.408;24.626;2023-04-23T06:41:05;12.80;99.90
8313;DHT22;4194;43.408;24.626;2023-04-23T06:43:31;12.60;99.90
8313;DHT22;4194;43.408;24.626;2023-04-23T06:45:57;13.70;99.90
8313;DHT22;4194;43.408;24.626;2023-04-23T06:48:23;14.60;99.90
8313;DHT22;4194;43.408;24.626;2023-04-23T06:50:50;12.70;99.90
8313;DHT22;4194;43.408;24.626;2023-04-23T06:53:16;13.30;99.90
8313;DHT22;4194;43.408;24.626;2023-04-23T06:55:42;13.80;99.90
8313;DHT22;4194;43.408;24.626;2023-04-23T06:58:08;13.60;99.90
8313;DHT22;4194;43.408;24.626;2023-04-23T07:00:33;14.30;99.90
8313;DHT22;4194;43.408;24.626;2023-04-23T07:02:59;14.00;99.90
8313;DHT22;4194;43.408;24.626;2023-04-23T07:05:25;14.30;99.90
8313;DHT22;4194;43.408;24.626;2023-04-23T07:07:50;14.40;99.80
8313;DHT22;4194;43.408;24.626;2023-04-23T07:10:17;13.60;98.20
8313;DHT22;4194;43.408;24.626;2023-04-23T07:12:43;14.60;98.90
8313;DHT22;4194;43.408;24.626;2023-04-23T07:15:09;15.60;98.20
8313;DHT22;4194;43.408;24.626;2023-04-23T07:17:35;15.40;97.00
8313;DHT22;4194;43.408;24.626;2023-04-23T07:20:00;15.10;96.10
8313;DHT22;4194;43.408;24.626;2023-04-23T07:22:31;15.00;96.30
8313;DHT22;4194;43.408;24.626;2023-04-23T07:24:56;15.30;95.20
8313;DHT22;4194;43.408;24.626;2023-04-23T07:27:22;15.20;95.50
8313;DHT22;4194;43.408;24.626;2023-04-23T07:29:48;15.50;93.90
8313;DHT22;4194;43.408;24.626;2023-04-23T07:32:14;14.50;93.00
8313;DHT22;4194;43.408;24.626;2023-04-23T07:34:39;15.50;93.70
8313;DHT22;4194;43.408;24.626;2023-04-23T07:37:05;15.80;93.80
8313;DHT22;4194;43.408;24.626;2023-04-23T07:39:31;16.10;92.50
8313;DHT22;4194;43.408;24.626;2023-04-23T07:41:57;16.30;91.50
8313;DHT22;4194;43.408;24.626;2023-04-23T07:44:23;16.00;91.00
8313;DHT22;4194;43.408;24.626;2023-04-23T07:46:49;16.60;91.40
8313;DHT22;4194;43.408;24.626;2023-04-23T07:49:15;17.60;91.20
8313;DHT22;4194;43.408;24.626;2023-04-23T07:51:41;15.30;89.60
8313;DHT22;4194;43.408;24.626;2023-04-23T07:54:08;16.60;90.70
8313;DHT22;4194;43.408;24.626;2023-04-23T07:56:34;16.60;90.30
8313;DHT22;4194;43.408;24.626;2023-04-23T07:59:01;16.70;90.70
8313;DHT22;4194;43.408;24.626;2023-04-23T08:01:27;16.80;88.80
8313;DHT22;4194;43.408;24.626;2023-04-23T08:03:53;16.90;89.50
8313;DHT22;4194;43.408;24.626;2023-04-23T08:06:21;18.30;88.90
8313;DHT22;4194;43.408;24.626;2023-04-23T08:08:48;17.00;88.60
8313;DHT22;4194;43.408;24.626;2023-04-23T08:13:40;17.60;86.90
8313;DHT22;4194;43.408;24.626;2023-04-23T08:16:05;16.00;82.60
8313;DHT22;4194;43.408;24.626;2023-04-23T08:18:31;17.60;84.30
8313;DHT22;4194;43.408;24.626;2023-04-23T08:20:57;18.10;84.00
8313;DHT22;4194;43.408;24.626;2023-04-23T08:23:23;17.60;83.60
8313;DHT22;4194;43.408;24.626;2023-04-23T08:25:49;17.60;84.50
8313;DHT22;4194;43.408;24.626;2023-04-23T08:28:14;19.00;81.90
8313;DHT22;4194;43.408;24.626;2023-04-23T08:30:40;17.90;81.50
8313;DHT22;4194;43.408;24.626;2023-04-23T08:33:06;18.90;80.40
8313;DHT22;4194;43.408;24.626;2023-04-23T08:35:32;18.00;80.30
8313;DHT22;4194;43.408;24.626;2023-04-23T08:37:58;18.40;77.70
8313;DHT22;4194;43.408;24.626;2023-04-23T08:40:25;18.50;78.40
8313;DHT22;4194;43.408;24.626;2023-04-23T08:42:57;18.50;78.00
8313;DHT22;4194;43.408;24.626;2023-04-23T08:45:26;18.70;77.50
8313;DHT22;4194;43.408;24.626;2023-04-23T08:47:52;18.70;74.50
8313;DHT22;4194;43.408;24.626;2023-04-23T08:50:21;19.50;71.60
8313;DHT22;4194;43.408;24.626;2023-04-23T08:52:56;19.40;65.20
8313;DHT22;4194;43.408;24.626;2023-04-23T08:55:23;19.40;55.40
8313;DHT22;4194;43.408;24.626;2023-04-23T08:57:49;19.90;58.70
8313;DHT22;4194;43.408;24.626;2023-04-23T09:00:18;19.80;59.20
8313;DHT22;4194;43.408;24.626;2023-04-23T09:02:45;20.20;59.80
8313;DHT22;4194;43.408;24.626;2023-04-23T09:05:12;20.00;56.30
8313;DHT22;4194;43.408;24.626;2023-04-23T09:07:38;20.60;55.80
8313;DHT22;4194;43.408;24.626;2023-04-23T09:10:06;20.60;54.80
8313;DHT22;4194;43.408;24.626;2023-04-23T09:12:36;20.60;54.80
8313;DHT22;4194;43.408;24.626;2023-04-23T09:15:03;20.50;56.00
8313;DHT22;4194;43.408;24.626;2023-04-23T09:17:37;21.10;55.60
8313;DHT22;4194;43.408;24.626;2023-04-23T09:20:03;21.80;55.40
8313;DHT22;4194;43.408;24.626;2023-04-23T09:22:47;21.30;54.00
8313;DHT22;4194;43.408;24.626;2023-04-23T09:25:19;21.20;54.30
8313;DHT22;4194;43.408;24.626;2023-04-23T09:27:45;21.20;54.90
8313;DHT22;4194;43.408;24.626;2023-04-23T09:30:12;21.70;52.80
8313;DHT22;4194;43.408;24.626;2023-04-23T09:32:40;21.60;52.90
8313;DHT22;4194;43.408;24.626;2023-04-23T09:35:12;21.50;53.00
8313;DHT22;4194;43.408;24.626;2023-04-23T09:37:43;22.60;53.50
8313;DHT22;4194;43.408;24.626;2023-04-23T09:40:17;22.30;52.00
8313;DHT22;4194;43.408;24.626;2023-04-23T09:42:48;21.60;50.00
8313;DHT22;4194;43.408;24.626;2023-04-23T09:45:15;21.40;51.20
8313;DHT22;4194;43.408;24.626;2023-04-23T09:47:51;22.30;50.70
8313;DHT22;4194;43.408;24.626;2023-04-23T09:50:18;20.90;48.40
8313;DHT22;4194;43.408;24.626;2023-04-23T09:52:43;22.50;49.80
8313;DHT22;4194;43.408;24.626;2023-04-23T09:55:09;22.50;50.30
8313;DHT22;4194;43.408;24.626;2023-04-23T09:57:40;21.50;50.70
8313;DHT22;4194;43.408;24.626;2023-04-23T10:00:18;22.50;51.10
8313;DHT22;4194;43.408;24.626;2023-04-23T10:02:48;21.90;48.20
8313;DHT22;4194;43.408;24.626;2023-04-23T10:05:15;21.60;49.80
8313;DHT22;4194;43.408;24.626;2023-04-23T10:07:45;23.10;49.70
8313;DHT22;4194;43.408;24.626;2023-04-23T10:10:13;22.90;48.90
8313;DHT22;4194;43.408;24.626;2023-04-23T10:15:06;22.90;47.70
8313;DHT22;4194;43.408;24.626;2023-04-23T10:17:37;22.60;49.50
8313;DHT22;4194;43.408;24.626;2023-04-23T10:20:04;22.40;48.20
8313;DHT22;4194;43.408;24.626;2023-04-23T10:22:33;23.40;48.20
8313;DHT22;4194;43.408;24.626;2023-04-23T10:25:01;23.50;47.30
8313;DHT22;4194;43.408;24.626;2023-04-23T10:27:30;24.90;49.00
8313;DHT22;4194;43.408;24.626;2023-04-23T10:29:59;24.10;48.90
8313;DHT22;4194;43.408;24.626;2023-04-23T10:32:26;24.70;48.30
8313;DHT22;4194;43.408;24.626;2023-04-23T10:34:52;26.30;45.10
8313;DHT22;4194;43.408;24.626;2023-04-23T10:37:18;24.60;42.30
8313;DHT22;4194;43.408;24.626;2023-04-23T10:39:49;25.20;43.40
8313;DHT22;4194;43.408;24.626;2023-04-23T10:42:16;25.80;44.90
8313;DHT22;4194;43.408;24.626;2023-04-23T10:44:42;26.60;44.60
8313;DHT22;4194;43.408;24.626;2023-04-23T10:47:13;26.40;45.10
8313;DHT22;4194;43.408;24.626;2023-04-23T10:49:40;26.40;42.80
8313;DHT22;4194;43.408;24.626;2023-04-23T10:52:10;26.40;42.70
8313;DHT22;4194;43.408;24.626;2023-04-23T10:54:40;26.60;43.40
8313;DHT22;4194;43.408;24.626;2023-04-23T10:57:07;28.30;42.80
8313;DHT22;4194;43.408;24.626;2023-04-23T10:59:34;27.70;39.00
8313;DHT22;4194;43.408;24.626;2023-04-23T11:02:10;26.90;38.40
8313;DHT22;4194;43.408;24.626;2023-04-23T11:04:56;26.90;42.00
8313;DHT22;4194;43.408;24.626;2023-04-23T11:07:30;27.40;41.70
8313;DHT22;4194;43.408;24.626;2023-04-23T11:09:58;27.40;42.70
8313;DHT22;4194;43.408;24.626;2023-04-23T11:14:55;28.10;39.70
8313;DHT22;4194;43.408;24.626;2023-04-23T11:17:22;28.60;37.70
8313;DHT22;4194;43.408;24.626;2023-04-23T11:20:08;28.20;38.40
8313;DHT22;4194;43.408;24.626;2023-04-23T11:25:08;29.10;36.40
8313;DHT22;4194;43.408;24.626;2023-04-23T11:27:41;28.10;37.30
8313;DHT22;4194;43.408;24.626;2023-04-23T11:30:21;28.90;37.30
8313;DHT22;4194;43.408;24.626;2023-04-23T11:32:49;28.30;37.30
8313;DHT22;4194;43.408;24.626;2023-04-23T11:35:17;29.30;35.10
8313;DHT22;4194;43.408;24.626;2023-04-23T11:37:44;29.30;35.60
8313;DHT22;4194;43.408;24.626;2023-04-23T11:40:12;29.60;37.10
8313;DHT22;4194;43.408;24.626;2023-04-23T11:42:43;30.20;36.30
8313;DHT22;4194;43.408;24.626;2023-04-23T11:45:25;28.20;35.20
8313;DHT22;4194;43.408;24.626;2023-04-23T11:47:56;29.00;36.10
8313;DHT22;4194;43.408;24.626;2023-04-23T11:50:23;30.00;36.20
8313;DHT22;4194;43.408;24.626;2023-04-23T11:55:15;29.40;36.80
8313;DHT22;4194;43.408;24.626;2023-04-23T11:57:43;29.10;37.80
8313;DHT22;4194;43.408;24.626;2023-04-23T12:02:59;29.50;36.10
8313;DHT22;4194;43.408;24.626;2023-04-23T12:05:33;29.00;33.10
8313;DHT22;4194;43.408;24.626;2023-04-23T12:08:17;29.30;35.00
8313;DHT22;4194;43.408;24.626;2023-04-23T12:10:53;30.80;34.10
8313;DHT22;4194;43.408;24.626;2023-04-23T12:13:24;31.40;34.20
8313;DHT22;4194;43.408;24.626;2023-04-23T12:15:51;31.20;34.30
8313;DHT22;4194;43.408;24.626;2023-04-23T12:18:18;31.50;32.70
8313;DHT22;4194;43.408;24.626;2023-04-23T12:20:44;30.00;33.80
8313;DHT22;4194;43.408;24.626;2023-04-23T12:23:10;29.00;32.10
8313;DHT22;4194;43.408;24.626;2023-04-23T12:25:38;29.70;33.30
8313;DHT22;4194;43.408;24.626;2023-04-23T12:28:06;32.60;32.70
8313;DHT22;4194;43.408;24.626;2023-04-23T12:30:33;32.60;33.30
8313;DHT22;4194;43.408;24.626;2023-04-23T12:32:59;33.00;31.00
8313;DHT22;4194;43.408;24.626;2023-04-23T12:35:48;33.70;31.00
8313;DHT22;4194;43.408;24.626;2023-04-23T12:38:25;35.60;30.30
8313;DHT22;4194;43.408;24.626;2023-04-23T12:40:56;34.00;30.50
8313;DHT22;4194;43.408;24.626;2023-04-23T12:43:23;32.00;32.10
8313;DHT22;4194;43.408;24.626;2023-04-23T12:45:49;29.30;31.50
8313;DHT22;4194;43.408;24.626;2023-04-23T12:48:15;30.70;32.20
8313;DHT22;4194;43.408;24.626;2023-04-23T12:50:41;32.50;31.50
8313;DHT22;4194;43.408;24.626;2023-04-23T12:53:07;33.30;30.20
8313;DHT22;4194;43.408;24.626;2023-04-23T12:55:32;33.70;29.70
8313;DHT22;4194;43.408;24.626;2023-04-23T12:57:58;35.20;29.70
8313;DHT22;4194;43.408;24.626;2023-04-23T13:00:25;36.20;29.20
8313;DHT22;4194;43.408;24.626;2023-04-23T13:02:51;37.10;27.60
8313;DHT22;4194;43.408;24.626;2023-04-23T13:07:43;38.00;27.60
8313;DHT22;4194;43.408;24.626;2023-04-23T13:10:09;37.90;28.10
8313;DHT22;4194;43.408;24.626;2023-04-23T13:12:35;38.80;26.80
8313;DHT22;4194;43.408;24.626;2023-04-23T13:15:01;38.40;26.70
8313;DHT22;4194;43.408;24.626;2023-04-23T13:17:27;38.40;27.00
8313;DHT22;4194;43.408;24.626;2023-04-23T13:19:55;38.20;27.50
8313;DHT22;4194;43.408;24.626;2023-04-23T13:22:21;39.40;26.90
8313;DHT22;4194;43.408;24.626;2023-04-23T13:24:52;39.20;26.10
8313;DHT22;4194;43.408;24.626;2023-04-23T13:27:18;39.20;26.80
8313;DHT22;4194;43.408;24.626;2023-04-23T13:29:44;40.20;25.60
8313;DHT22;4194;43.408;24.626;2023-04-23T13:32:09;40.80;25.30
8313;DHT22;4194;43.408;24.626;2023-04-23T13:34:35;40.80;25.90
8313;DHT22;4194;43.408;24.626;2023-04-23T13:37:01;40.50;24.90
8313;DHT22;4194;43.408;24.626;2023-04-23T13:39:30;37.50;26.30
8313;DHT22;4194;43.408;24.626;2023-04-23T13:41:56;36.90;26.60
8313;DHT22;4194;43.408;24.626;2023-04-23T13:44:22;33.50;28.80
8313;DHT22;4194;43.408;24.626;2023-04-23T13:46:48;31.00;30.30
8313;DHT22;4194;43.408;24.626;2023-04-23T13:49:14;29.90;31.90
8313;DHT22;4194;43.408;24.626;2023-04-23T13:51:39;28.90;33.10
8313;DHT22;4194;43.408;24.626;2023-04-23T13:54:05;30.60;32.40
8313;DHT22;4194;43.408;24.626;2023-04-23T13:56:32;32.90;29.30
8313;DHT22;4194;43.408;24.626;2023-04-23T13:58:58;36.70;27.80
8313;DHT22;4194;43.408;24.626;2023-04-23T14:01:28;38.20;27.70
8313;DHT22;4194;43.408;24.626;2023-04-23T14:03:54;39.40;26.40
8313;DHT22;4194;43.408;24.626;2023-04-23T14:06:20;38.80;25.20
8313;DHT22;4194;43.408;24.626;2023-04-23T14:08:46;39.80;25.30
8313;DHT22;4194;43.408;24.626;2023-04-23T14:11:12;37.80;26.60
8313;DHT22;4194;43.408;24.626;2023-04-23T14:13:37;36.90;26.70
8313;DHT22;4194;43.408;24.626;2023-04-23T14:16:03;37.10;27.90
8313;DHT22;4194;43.408;24.626;2023-04-23T14:18:30;38.30;25.80
8313;DHT22;4194;43.408;24.626;2023-04-23T14:20:56;38.90;26.50
8313;DHT22;4194;43.408;24.626;2023-04-23T14:25:52;41.30;23.90
8313;DHT22;4194;43.408;24.626;2023-04-23T14:30:55;41.70;23.10
8313;DHT22;4194;43.408;24.626;2023-04-23T14:33:21;41.60;23.40
8313;DHT22;4194;43.408;24.626;2023-04-23T14:38:13;38.50;25.40
8313;DHT22;4194;43.408;24.626;2023-04-23T14:40:38;40.50;24.80
8313;DHT22;4194;43.408;24.626;2023-04-23T14:43:04;40.60;25.40
8313;DHT22;4194;43.408;24.626;2023-04-23T14:45:31;41.10;24.70
8313;DHT22;4194;43.408;24.626;2023-04-23T14:47:57;41.10;25.20
8313;DHT22;4194;43.408;24.626;2023-04-23T14:50:23;42.10;24.70
8313;DHT22;4194;43.408;24.626;2023-04-23T14:52:49;41.40;25.00
8313;DHT22;4194;43.408;24.626;2023-04-23T14:55:15;41.30;24.70
8313;DHT22;4194;43.408;24.626;2023-04-23T14:57:43;41.70;25.70
8313;DHT22;4194;43.408;24.626;2023-04-23T15:00:09;41.00;24.80
8313;DHT22;4194;43.408;24.626;2023-04-23T15:02:41;40.90;25.40
8313;DHT22;4194;43.408;24.626;2023-04-23T15:05:07;40.90;24.90
8313;DHT22;4194;43.408;24.626;2023-04-23T15:07:35;42.00;24.10
8313;DHT22;4194;43.408;24.626;2023-04-23T15:10:01;41.90;24.20
8313;DHT22;4194;43.408;24.626;2023-04-23T15:17:50;42.40;24.50
8313;DHT22;4194;43.408;24.626;2023-04-23T15:20:16;41.50;24.70
8313;DHT22;4194;43.408;24.626;2023-04-23T15:22:45;41.60;24.70
8313;DHT22;4194;43.408;24.626;2023-04-23T15:25:14;41.30;24.40
8313;DHT22;4194;43.408;24.626;2023-04-23T15:27:41;42.10;24.90
8313;DHT22;4194;43.408;24.626;2023-04-23T15:30:07;41.60;24.10
8313;DHT22;4194;43.408;24.626;2023-04-23T15:32:33;39.40;24.00
8313;DHT22;4194;43.408;24.626;2023-04-23T15:34:59;39.20;24.60
8313;DHT22;4194;43.408;24.626;2023-04-23T15:39:55;39.70;26.20
8313;DHT22;4194;43.408;24.626;2023-04-23T15:42:21;35.10;26.80
8313;DHT22;4194;43.408;24.626;2023-04-23T15:44:49;34.10;29.30
8313;DHT22;4194;43.408;24.626;2023-04-23T15:47:19;31.30;30.00
8313;DHT22;4194;43.408;24.626;2023-04-23T15:49:45;29.40;31.20
8313;DHT22;4194;43.408;24.626;2023-04-23T15:52:11;27.20;34.10
8313;DHT22;4194;43.408;24.626;2023-04-23T15:54:36;25.60;35.00
8313;DHT22;4194;43.408;24.626;2023-04-23T15:57:02;25.20;36.90
8313;DHT22;4194;43.408;24.626;2023-04-23T15:59:28;24.60;38.10
8313;DHT22;4194;43.408;24.626;2023-04-23T16:01:54;24.00;38.40
8313;DHT22;4194;43.408;24.626;2023-04-23T16:04:20;22.70;38.60
8313;DHT22;4194;43.408;24.626;2023-04-23T16:06:46;23.90;40.40
8313;DHT22;4194;43.408;24.626;2023-04-23T16:09:11;22.10;40.00
8313;DHT22;4194;43.408;24.626;2023-04-23T16:11:37;22.50;41.40
8313;DHT22;4194;43.408;24.626;2023-04-23T16:14:04;22.40;41.70
8313;DHT22;4194;43.408;24.626;2023-04-23T16:16:30;21.80;42.80
8313;DHT22;4194;43.408;24.626;2023-04-23T16:18:56;22.30;43.90
8313;DHT22;4194;43.408;24.626;2023-04-23T16:21:21;22.10;44.00
8313;DHT22;4194;43.408;24.626;2023-04-23T16:23:47;20.80;43.20
8313;DHT22;4194;43.408;24.626;2023-04-23T16:26:13;19.70;43.80
8313;DHT22;4194;43.408;24.626;2023-04-23T16:28:39;19.60;43.00